createdAt,value
2022-10-22T02:38:16.188Z,100621.28
2022-10-22T03:09:22.769Z,100642.19
2022-10-22T03:14:16.832Z,100643.25
2022-10-22T03:17:58.992Z,100645.91
2022-10-22T03:26:40.356Z,100638.72
2022-10-22T03:29:29.017Z,100649.47
2022-10-22T03:32:22.721Z,100649.78
2022-10-22T03:35:06.435Z,100653.81
2022-10-22T03:38:04.943Z,100661.13
2022-10-22T03:52:11.169Z,100664.16
2022-10-22T03:55:19.054Z,100674.19
2022-10-22T03:57:50.306Z,100673.94
2022-10-22T04:09:32.375Z,100682.56
2022-10-22T04:17:12.510Z,100689.16
2022-10-22T04:25:31.695Z,100692.38
2022-10-22T04:28:48.666Z,100689.00
2022-10-22T04:40:03.915Z,100696.22
2022-10-22T04:43:44.451Z,100695.97
2022-10-22T04:52:45.024Z,100689.72
2022-10-22T05:12:08.430Z,100690.72
2022-10-22T05:22:07.204Z,100700.41
2022-10-22T05:25:50.698Z,100702.75
2022-10-22T05:43:40.413Z,100703.25
2022-10-22T05:47:08.555Z,100709.97
2022-10-22T06:21:54.501Z,100704.31
2022-10-22T06:43:24.063Z,100698.88
2022-10-22T06:50:39.707Z,100691.13
2022-10-22T06:55:11.929Z,100690.06
2022-10-22T07:07:40.873Z,100694.88
2022-10-22T07:11:40.699Z,100689.72
2022-10-22T07:36:59.722Z,100685.16
2022-10-22T07:39:56.554Z,100689.03
2022-10-22T07:42:39.211Z,100690.81
2022-10-22T07:45:15.941Z,100686.41
2022-10-22T07:48:08.731Z,100698.09
2022-10-22T07:53:23.398Z,100690.03
2022-10-22T07:56:19.324Z,100691.34
2022-10-22T07:59:21.102Z,100688.50
2022-10-22T08:07:43.954Z,100684.81
2022-10-22T08:28:25.077Z,100687.97
2022-10-22T08:31:21.005Z,100676.97
2022-10-22T08:37:36.399Z,100680.97
2022-10-22T08:40:16.090Z,100688.69
2022-10-22T08:43:14.068Z,100691.78
2022-10-22T08:46:36.045Z,100691.75
2022-10-22T08:49:32.137Z,100691.22
2022-10-22T08:55:52.170Z,100692.56
2022-10-22T08:58:42.973Z,100695.25
2022-10-22T09:01:39.678Z,100699.22
2022-10-22T09:04:48.899Z,100698.66
2022-10-22T09:08:00.698Z,100701.22
2022-10-22T09:10:48.719Z,100706.91
2022-10-22T09:13:38.720Z,100708.75
2022-10-22T09:16:38.711Z,100709.09
2022-10-22T09:19:16.621Z,100710.38
2022-10-22T09:25:13.161Z,100714.19
2022-10-22T09:27:51.659Z,100717.94
2022-10-22T09:31:18.003Z,100719.91
2022-10-22T09:34:16.141Z,100731.50
2022-10-22T09:38:04.576Z,100724.25
2022-10-22T09:41:34.815Z,100732.06
2022-10-22T09:44:11.792Z,100738.06
2022-10-22T09:46:48.215Z,100735.13
2022-10-22T09:49:46.313Z,100743.09
2022-10-22T09:52:55.717Z,100748.09
2022-10-22T09:58:47.903Z,100750.78
2022-10-22T10:01:40.336Z,100754.25
2022-10-22T10:04:15.214Z,100755.38
2022-10-22T10:06:51.192Z,100761.03
2022-10-22T10:09:47.100Z,100769.94
2022-10-22T10:15:23.681Z,100769.41
2022-10-22T10:18:16.268Z,100774.44
2022-10-22T10:24:23.983Z,100776.13
2022-10-22T10:27:35.048Z,100771.50
2022-10-22T10:30:20.158Z,100776.56
2022-10-22T10:37:35.928Z,100773.38
2022-10-22T10:40:44.033Z,100776.97
2022-10-22T10:51:45.611Z,100786.00
2022-10-22T10:54:35.103Z,100793.81
2022-10-22T10:57:20.454Z,100800.50
2022-10-22T11:00:56.818Z,100788.09
2022-10-22T11:03:47.943Z,100784.44
2022-10-22T11:06:25.379Z,100780.97
2022-10-22T11:09:23.892Z,100782.63
2022-10-22T11:12:20.836Z,100788.53
2022-10-22T11:15:04.837Z,100803.22
2022-10-22T11:17:47.580Z,100805.63
2022-10-22T11:21:06.955Z,100809.00
2022-10-22T11:24:05.153Z,100808.81
2022-10-22T11:27:07.183Z,100810.59
2022-10-22T11:29:40.666Z,100816.47
2022-10-22T11:32:32.091Z,100819.50
2022-10-22T11:35:11.669Z,100832.78
2022-10-22T11:37:56.328Z,100838.34
2022-10-22T11:41:04.355Z,100837.09
2022-10-22T11:44:09.579Z,100836.91
2022-10-22T11:46:48.524Z,100833.44
2022-10-22T11:49:24.837Z,100847.88
2022-10-22T11:52:23.796Z,100844.38
2022-10-22T11:55:31.453Z,100856.13
2022-10-22T11:58:07.974Z,100856.69
2022-10-22T12:01:19.813Z,100853.78
2022-10-22T12:13:16.365Z,100875.09
2022-10-22T12:16:32.139Z,100877.84
2022-10-22T12:45:44.923Z,100891.94
2022-10-22T12:48:41.430Z,100888.59
2022-10-22T12:51:24.637Z,100901.22
2022-10-22T12:54:13.293Z,100917.56
2022-10-22T12:56:51.947Z,100920.47
2022-10-22T13:21:11.587Z,100940.00
2022-10-22T13:27:48.162Z,100937.91
2022-10-22T13:31:06.342Z,100934.78
2022-10-22T13:33:40.901Z,100933.38
2022-10-22T13:36:16.438Z,100935.44
2022-10-22T13:39:11.813Z,100938.56
2022-10-22T13:41:45.372Z,100927.78
2022-10-22T13:44:16.120Z,100937.50
2022-10-22T13:46:55.213Z,100933.09
2022-10-22T13:49:42.477Z,100942.00
2022-10-22T13:52:43.867Z,100933.47
2022-10-22T13:55:35.177Z,100938.69
2022-10-22T13:58:56.959Z,100934.31
2022-10-22T14:40:50.842Z,100938.19
2022-10-22T15:37:11.021Z,100910.78
2022-10-22T15:39:44.878Z,100901.53
2022-10-22T15:42:18.645Z,100902.00
2022-10-22T15:45:03.662Z,100896.91
2022-10-22T15:47:45.083Z,100902.34
2022-10-22T15:50:17.051Z,100910.25
2022-10-22T15:52:55.891Z,100910.09
2022-10-22T15:55:34.863Z,100911.19
2022-10-22T15:58:04.604Z,100911.16
2022-10-22T16:00:35.583Z,100914.91
2022-10-22T16:03:05.333Z,100926.81
2022-10-22T16:05:36.999Z,100922.13
2022-10-22T16:08:15.214Z,100915.72
2022-10-22T16:10:51.489Z,100910.50
2022-10-22T16:13:25.051Z,100908.84
2022-10-22T16:16:15.475Z,100899.47
2022-10-22T16:18:46.847Z,100899.88
2022-10-22T16:21:22.404Z,100898.00
2022-10-22T16:23:53.313Z,100891.22
2022-10-22T16:26:45.289Z,100886.94
2022-10-22T16:29:24.593Z,100880.69
2022-10-22T16:32:32.200Z,100885.50
2022-10-22T16:35:04.840Z,100890.59
2022-10-22T16:37:55.990Z,100884.63
2022-10-22T16:40:34.514Z,100882.81
2022-10-22T16:43:11.478Z,100881.41
2022-10-22T16:45:55.543Z,100879.88
2022-10-22T16:48:25.542Z,100881.44
2022-10-22T16:51:15.485Z,100880.25
2022-10-22T16:53:47.536Z,100878.69
2022-10-22T16:56:19.947Z,100882.28
2022-10-22T16:58:52.807Z,100877.16
2022-10-22T17:01:31.642Z,100871.94
2022-10-22T17:04:11.435Z,100861.34
2022-10-22T17:06:44.359Z,100860.03
2022-10-22T17:09:16.978Z,100855.59
2022-10-22T17:11:48.859Z,100850.66
2022-10-22T17:14:22.940Z,100846.22
2022-10-22T17:16:56.479Z,100841.03
2022-10-22T17:19:32.067Z,100837.59
2022-10-22T17:22:23.639Z,100839.31
2022-10-22T17:25:10.683Z,100831.78
2022-10-22T17:27:41.481Z,100824.59
2022-10-22T17:30:27.071Z,100820.94
2022-10-22T17:33:03.477Z,100821.28
2022-10-22T17:35:34.952Z,100809.53
2022-10-22T17:38:04.550Z,100806.38
2022-10-22T17:40:40.366Z,100803.53
2022-10-22T17:43:21.029Z,100801.53
2022-10-22T17:46:12.296Z,100805.22
2022-10-22T17:48:44.228Z,100800.91
2022-10-22T17:51:15.244Z,100793.44
2022-10-22T17:53:48.916Z,100789.38
2022-10-22T17:56:31.751Z,100788.00
2022-10-22T17:59:26.933Z,100787.19
2022-10-22T18:02:20.626Z,100783.59
2022-10-22T18:05:31.999Z,100775.84
2022-10-22T18:08:12.024Z,100781.91
2022-10-22T18:10:45.157Z,100780.13
2022-10-22T18:13:20.406Z,100787.28
2022-10-22T18:16:21.370Z,100789.31
2022-10-22T18:19:05.326Z,100791.63
2022-10-22T18:33:50.111Z,100775.91
2022-10-22T18:41:48.879Z,100771.72
2022-10-22T18:45:17.297Z,100775.59
2022-10-22T18:49:04.350Z,100770.53
2022-10-22T18:55:19.616Z,100769.97
2022-10-22T18:58:04.282Z,100777.00
2022-10-22T19:00:51.300Z,100787.50
2022-10-22T19:13:45.813Z,100772.31
2022-10-22T19:25:13.074Z,100787.88
2022-10-22T19:29:19.995Z,100782.97
2022-10-22T19:32:44.908Z,100784.84
2022-10-22T19:39:21.287Z,100782.03
2022-10-22T20:22:08.807Z,100778.56
2022-10-22T20:29:43.542Z,100776.00
2022-10-22T20:32:37.606Z,100778.09
2022-10-22T20:35:19.367Z,100769.28
2022-10-22T20:37:48.889Z,100762.44
2022-10-22T20:40:53.180Z,100770.16
2022-10-22T21:02:15.008Z,100778.34
2022-10-22T21:13:32.548Z,100779.34
2022-10-22T21:17:05.822Z,100772.13
2022-10-22T21:21:41.353Z,100791.16
2022-10-22T21:36:36.680Z,100795.16
2022-10-22T21:42:51.418Z,100785.56
2022-10-22T22:05:41.254Z,100805.81
2022-10-22T22:08:48.736Z,100802.78
2022-10-22T22:11:41.516Z,100804.97
2022-10-22T22:19:16.981Z,100793.97
2022-10-22T22:28:43.342Z,100797.19
2022-10-22T22:31:16.495Z,100796.56
2022-10-22T22:33:49.363Z,100798.28
2022-10-22T22:37:03.106Z,100815.06
2022-10-22T22:40:16.271Z,100801.13
2022-10-22T22:47:11.111Z,100783.25
2022-10-22T22:59:55.583Z,100801.16
2022-10-22T23:03:46.910Z,100798.91
2022-10-22T23:06:19.451Z,100799.13
2022-10-22T23:08:53.333Z,100800.16
2022-10-22T23:15:48.590Z,100820.69
2022-10-22T23:18:53.499Z,100829.31
2022-10-22T23:21:40.910Z,100832.16
2022-10-22T23:34:41.331Z,100856.28
2022-10-22T23:37:24.734Z,100856.84
2022-10-22T23:41:19.952Z,100859.75
2022-10-22T23:44:07.017Z,100862.81
2022-10-22T23:52:26.804Z,100851.22
2022-10-22T23:55:12.663Z,100867.47
